Time;durP1;ratioP1;P1;durP2;ratioP2;P2;SDS_P1;SDS_P2;PMS_P1;PMS_P2;Temp;Humidity;BMP_temperature;BMP_pressure;BME280_temperature;BME280_humidity;BME280_pressure;Samples;Min_cycle;Max_cycle;Signal;HPM_P1;HPM_P2
2022/09/22 00:01:40;;;;;;;6.05;4.82;;;;;;;;;;5068523;28;20032;-75
2022/09/22 00:04:09;;;;;;;6.03;3.58;;;;;;;;;;5070244;28;20039;-74
2022/09/22 00:06:40;;;;;;;7.53;3.42;;;;;;;;;;5065743;28;20369;-73
2022/09/22 00:09:08;;;;;;;9.30;3.40;;;;;;;;;;5070620;28;20044;-74
2022/09/22 00:11:36;;;;;;;9.88;4.28;;;;;;;;;;5078651;28;20048;-74
2022/09/22 00:14:10;;;;;;;8.32;3.30;;;;;;;;;;5066177;28;20044;-75
2022/09/22 00:16:41;;;;;;;6.97;4.00;;;;;;;;;;5065926;28;20021;-74
2022/09/22 00:19:09;;;;;;;6.80;4.78;;;;;;;;;;5062663;28;20449;-74
2022/09/22 00:21:35;;;;;;;5.20;3.63;;;;;;;;;;5068540;28;20060;-74
2022/09/22 00:24:02;;;;;;;8.32;3.60;;;;;;;;;;5082387;28;20035;-74
2022/09/22 00:26:30;;;;;;;10.10;4.38;;;;;;;;;;5064680;28;20055;-75
2022/09/22 00:28:56;;;;;;;7.10;3.65;;;;;;;;;;5070759;28;20032;-75
2022/09/22 00:31:23;;;;;;;5.88;3.28;;;;;;;;;;5071635;28;20150;-75
2022/09/22 00:33:50;;;;;;;8.20;3.70;;;;;;;;;;5085935;28;20127;-75
2022/09/22 00:36:17;;;;;;;8.00;3.60;;;;;;;;;;5071831;28;20024;-75
2022/09/22 00:38:43;;;;;;;8.90;5.07;;;;;;;;;;5069757;28;20024;-75
2022/09/22 00:41:15;;;;;;;6.75;4.15;;;;;;;;;;5070739;28;20017;-75
2022/09/22 00:43:41;;;;;;;8.88;3.70;;;;;;;;;;5072377;28;20033;-75
2022/09/22 00:46:08;;;;;;;8.48;3.45;;;;;;;;;;5073168;28;20025;-75
2022/09/22 00:48:36;;;;;;;7.22;3.30;;;;;;;;;;5073013;28;20054;-74
2022/09/22 00:51:04;;;;;;;9.10;3.63;;;;;;;;;;5067578;28;20116;-75
2022/09/22 00:53:31;;;;;;;8.50;3.50;;;;;;;;;;5068368;28;20566;-75
2022/09/22 00:56:15;;;;;;;6.95;3.80;;;;;;;;;;5071713;28;20074;-75
2022/09/22 00:58:51;;;;;;;7.22;3.63;;;;;;;;;;5073820;28;20012;-74
2022/09/22 01:01:18;;;;;;;7.63;4.18;;;;;;;;;;5071469;28;20088;-75
2022/09/22 01:03:45;;;;;;;7.85;3.28;;;;;;;;;;5069523;28;20653;-75
2022/09/22 01:06:13;;;;;;;7.03;3.45;;;;;;;;;;5068684;28;20051;-75
2022/09/22 01:08:42;;;;;;;6.60;3.70;;;;;;;;;;5070313;28;20385;-75
2022/09/22 01:11:08;;;;;;;5.32;3.40;;;;;;;;;;5065987;28;20041;-75
2022/09/22 01:13:34;;;;;;;6.55;3.53;;;;;;;;;;5068888;28;20645;-75
2022/09/22 01:16:11;;;;;;;5.28;3.53;;;;;;;;;;5071249;28;20029;-75
2022/09/22 01:18:44;;;;;;;8.55;3.63;;;;;;;;;;5069822;28;20044;-75
2022/09/22 01:21:13;;;;;;;7.30;3.58;;;;;;;;;;5066418;28;20112;-75
2022/09/22 01:23:58;;;;;;;4.97;3.30;;;;;;;;;;5079327;28;20097;-75
2022/09/22 01:26:39;;;;;;;5.82;3.70;;;;;;;;;;5069095;28;20033;-75
2022/09/22 01:29:24;;;;;;;4.90;3.00;;;;;;;;;;5073044;28;20036;-76
2022/09/22 01:31:51;;;;;;;6.35;3.42;;;;;;;;;;5074355;28;20460;-75
2022/09/22 01:34:30;;;;;;;5.55;3.45;;;;;;;;;;5069080;28;20008;-75
2022/09/22 01:37:09;;;;;;;9.65;3.25;;;;;;;;;;5072412;28;20025;-75
2022/09/22 01:39:53;;;;;;;4.05;3.00;;;;;;;;;;5075970;28;20032;-75
2022/09/22 01:42:46;;;;;;;6.00;2.92;;;;;;;;;;5066517;28;20028;-75
2022/09/22 01:45:16;;;;;;;3.35;2.67;;;;;;;;;;5052742;28;20049;-75
2022/09/22 01:47:47;;;;;;;4.90;3.17;;;;;;;;;;5073853;28;20036;-75
2022/09/22 01:50:23;;;;;;;7.47;3.53;;;;;;;;;;5067728;28;20024;-75
2022/09/22 01:52:51;;;;;;;5.20;3.47;;;;;;;;;;5071919;28;20112;-75
2022/09/22 01:55:17;;;;;;;6.32;3.00;;;;;;;;;;5069873;28;20016;-74
2022/09/22 01:57:56;;;;;;;5.85;3.00;;;;;;;;;;5072329;28;20052;-75
2022/09/22 02:00:22;;;;;;;5.05;3.17;;;;;;;;;;5072078;28;20020;-75
2022/09/22 02:02:54;;;;;;;6.65;3.10;;;;;;;;;;5065547;28;20021;-74
2022/09/22 02:05:29;;;;;;;6.65;3.70;;;;;;;;;;5070773;28;20050;-75
2022/09/22 02:07:58;;;;;;;6.70;3.38;;;;;;;;;;5074417;28;20029;-75
2022/09/22 02:10:30;;;;;;;9.05;3.67;;;;;;;;;;5070452;28;20028;-75
2022/09/22 02:12:56;;;;;;;6.78;3.35;;;;;;;;;;5073833;28;20041;-75
2022/09/22 02:18:10;;;;;;;13.90;4.05;;;;;;;;;;5072585;28;20066;-74
2022/09/22 02:20:36;;;;;;;7.55;3.70;;;;;;;;;;5068835;28;20028;-75
2022/09/22 02:23:02;;;;;;;6.93;4.43;;;;;;;;;;5064250;28;20036;-74
2022/09/22 02:25:29;;;;;;;6.85;3.90;;;;;;;;;;5065267;28;20055;-74
2022/09/22 02:27:55;;;;;;;9.75;4.45;;;;;;;;;;5070773;28;20040;-74
2022/09/22 02:30:22;;;;;;;10.10;3.75;;;;;;;;;;5062103;28;20052;-74
2022/09/22 02:32:49;;;;;;;5.55;3.70;;;;;;;;;;5070253;28;20071;-73
2022/09/22 02:35:15;;;;;;;8.18;4.43;;;;;;;;;;5064738;28;20473;-74
2022/09/22 02:37:41;;;;;;;7.60;4.10;;;;;;;;;;5065371;28;20358;-74
2022/09/22 02:40:20;;;;;;;10.55;4.97;;;;;;;;;;5069167;28;20016;-75
2022/09/22 02:42:54;;;;;;;6.10;3.92;;;;;;;;;;5058437;28;20563;-74
2022/09/22 02:45:23;;;;;;;7.93;3.75;;;;;;;;;;5060769;28;20154;-74
2022/09/22 02:47:57;;;;;;;8.77;4.47;;;;;;;;;;5063131;28;20509;-74
2022/09/22 02:50:24;;;;;;;6.43;4.10;;;;;;;;;;5062413;28;20028;-75
2022/09/22 02:52:51;;;;;;;7.55;4.20;;;;;;;;;;5068780;28;20630;-74
2022/09/22 02:55:18;;;;;;;6.82;4.47;;;;;;;;;;5068503;28;20044;-74
2022/09/22 02:57:44;;;;;;;7.47;3.83;;;;;;;;;;5065968;28;20461;-74
2022/09/22 03:00:10;;;;;;;9.90;4.03;;;;;;;;;;5065444;28;20027;-74
2022/09/22 03:02:36;;;;;;;9.57;4.22;;;;;;;;;;5068292;28;20033;-74
2022/09/22 03:05:03;;;;;;;6.90;3.85;;;;;;;;;;5067121;28;20094;-74
2022/09/22 03:07:29;;;;;;;11.10;4.47;;;;;;;;;;5064690;28;20052;-74
2022/09/22 03:09:55;;;;;;;10.57;5.05;;;;;;;;;;5068793;28;20016;-74
2022/09/22 03:12:22;;;;;;;8.68;4.20;;;;;;;;;;5068474;28;20048;-74
2022/09/22 03:14:49;;;;;;;9.80;3.67;;;;;;;;;;5060693;28;20051;-74
2022/09/22 03:17:15;;;;;;;7.47;4.22;;;;;;;;;;5062950;28;20055;-74
2022/09/22 03:19:41;;;;;;;7.03;4.03;;;;;;;;;;5067198;28;20025;-74
2022/09/22 03:22:07;;;;;;;11.52;4.70;;;;;;;;;;5065804;28;20032;-74
2022/09/22 03:24:33;;;;;;;7.10;4.38;;;;;;;;;;5062911;28;20563;-74
2022/09/22 03:26:59;;;;;;;7.55;4.00;;;;;;;;;;5068103;28;20059;-75
2022/09/22 03:29:25;;;;;;;5.82;3.88;;;;;;;;;;5063176;28;20040;-74
2022/09/22 03:31:52;;;;;;;6.70;4.25;;;;;;;;;;5067813;28;20051;-74
2022/09/22 03:34:18;;;;;;;8.68;4.30;;;;;;;;;;5063652;28;20069;-75
2022/09/22 03:36:44;;;;;;;6.88;3.35;;;;;;;;;;5069486;28;20157;-74
2022/09/22 03:39:10;;;;;;;6.80;3.70;;;;;;;;;;5068011;28;20195;-74
2022/09/22 03:41:36;;;;;;;6.35;3.95;;;;;;;;;;5070648;28;20058;-74
2022/09/22 03:44:04;;;;;;;8.95;3.83;;;;;;;;;;5065514;28;20191;-74
2022/09/22 03:46:31;;;;;;;9.52;4.25;;;;;;;;;;5068273;28;20012;-74
2022/09/22 03:48:57;;;;;;;5.85;4.07;;;;;;;;;;5069338;28;20046;-74
2022/09/22 03:51:23;;;;;;;7.22;4.20;;;;;;;;;;5069502;28;20049;-74
2022/09/22 03:53:49;;;;;;;7.20;4.22;;;;;;;;;;5065537;28;20025;-74
2022/09/22 03:56:15;;;;;;;11.75;3.95;;;;;;;;;;5065655;28;20027;-74
2022/09/22 03:58:42;;;;;;;6.38;3.88;;;;;;;;;;5059680;28;20025;-74
2022/09/22 04:01:09;;;;;;;6.03;3.53;;;;;;;;;;5067006;28;20043;-74
2022/09/22 04:03:36;;;;;;;5.28;3.40;;;;;;;;;;5069929;28;20668;-74
2022/09/22 04:06:03;;;;;;;6.95;3.75;;;;;;;;;;5062658;28;20489;-74
2022/09/22 04:08:29;;;;;;;7.28;3.60;;;;;;;;;;5070018;28;20614;-74
2022/09/22 04:10:56;;;;;;;7.30;3.70;;;;;;;;;;5076803;28;20072;-74
2022/09/22 04:13:22;;;;;;;6.97;3.70;;;;;;;;;;5065861;28;20032;-74
2022/09/22 04:15:49;;;;;;;6.63;4.10;;;;;;;;;;5062987;28;20028;-74
2022/09/22 04:18:15;;;;;;;9.65;4.30;;;;;;;;;;5062614;28;20362;-75
2022/09/22 04:20:43;;;;;;;7.97;3.08;;;;;;;;;;5068270;28;20079;-74
2022/09/22 04:23:12;;;;;;;8.38;3.83;;;;;;;;;;5061834;28;20440;-74
2022/09/22 04:25:38;;;;;;;4.65;3.58;;;;;;;;;;5058437;28;20029;-74
2022/09/22 04:28:05;;;;;;;3.67;3.22;;;;;;;;;;5063315;28;20035;-74
2022/09/22 04:30:31;;;;;;;6.57;3.72;;;;;;;;;;5061986;28;20114;-74
2022/09/22 04:32:58;;;;;;;7.78;3.40;;;;;;;;;;5068060;28;20029;-75
2022/09/22 04:35:27;;;;;;;6.55;3.72;;;;;;;;;;5064201;28;20162;-74
2022/09/22 04:37:53;;;;;;;8.73;3.92;;;;;;;;;;5066400;28;20029;-74
2022/09/22 04:40:19;;;;;;;8.10;3.78;;;;;;;;;;5064884;28;20028;-74
2022/09/22 04:42:45;;;;;;;5.75;3.58;;;;;;;;;;5067036;28;20027;-74
2022/09/22 04:45:12;;;;;;;4.93;3.42;;;;;;;;;;5066185;28;20039;-75
2022/09/22 04:47:38;;;;;;;5.53;3.50;;;;;;;;;;5069594;28;20469;-74
2022/09/22 04:50:04;;;;;;;4.50;3.88;;;;;;;;;;5067763;28;20066;-74
2022/09/22 04:52:31;;;;;;;4.38;3.20;;;;;;;;;;5063333;28;20074;-73
2022/09/22 04:54:57;;;;;;;7.03;3.70;;;;;;;;;;5065034;28;20033;-74
2022/09/22 04:57:23;;;;;;;8.90;3.88;;;;;;;;;;5065889;28;20028;-74
2022/09/22 04:59:49;;;;;;;5.35;4.30;;;;;;;;;;5059998;28;20025;-74
2022/09/22 05:02:15;;;;;;;9.07;3.75;;;;;;;;;;5065281;28;20392;-74
2022/09/22 05:04:42;;;;;;;10.80;5.15;;;;;;;;;;5063597;28;20099;-74
2022/09/22 05:07:08;;;;;;;6.28;3.50;;;;;;;;;;5064015;28;20147;-74
2022/09/22 05:09:35;;;;;;;7.47;3.50;;;;;;;;;;5056728;28;20028;-74
2022/09/22 05:12:03;;;;;;;5.57;3.60;;;;;;;;;;5061197;28;20460;-74
2022/09/22 05:14:30;;;;;;;4.85;3.70;;;;;;;;;;5068838;28;20021;-74
2022/09/22 05:16:56;;;;;;;8.10;4.40;;;;;;;;;;5064217;28;20032;-74
2022/09/22 05:19:22;;;;;;;11.18;4.20;;;;;;;;;;5060855;28;20048;-73
2022/09/22 05:21:49;;;;;;;8.55;4.35;;;;;;;;;;5058930;28;20036;-74
2022/09/22 05:24:15;;;;;;;7.05;4.20;;;;;;;;;;5051362;28;21880;-74
2022/09/22 05:26:41;;;;;;;6.25;3.63;;;;;;;;;;5058501;28;20063;-74
2022/09/22 05:29:07;;;;;;;6.82;4.18;;;;;;;;;;5064005;28;20189;-74
2022/09/22 05:31:33;;;;;;;5.78;3.53;;;;;;;;;;5062345;28;20401;-74
2022/09/22 05:33:59;;;;;;;9.60;4.15;;;;;;;;;;5062342;28;20377;-75
2022/09/22 05:36:25;;;;;;;9.07;3.85;;;;;;;;;;5066401;28;20492;-74
2022/09/22 05:38:51;;;;;;;8.30;3.58;;;;;;;;;;5068915;28;20023;-74
2022/09/22 05:41:18;;;;;;;5.78;3.72;;;;;;;;;;5069871;28;20385;-73
2022/09/22 05:43:44;;;;;;;7.82;3.80;;;;;;;;;;5073995;28;20024;-74
2022/09/22 05:46:10;;;;;;;6.78;3.40;;;;;;;;;;5070808;28;20032;-74
2022/09/22 05:48:36;;;;;;;6.03;3.92;;;;;;;;;;5071264;28;20024;-73
2022/09/22 05:51:02;;;;;;;7.90;3.72;;;;;;;;;;5070033;28;20039;-75
2022/09/22 05:53:28;;;;;;;5.43;3.20;;;;;;;;;;5064231;28;20378;-74
2022/09/22 05:55:55;;;;;;;7.72;3.63;;;;;;;;;;5070350;28;20096;-74
2022/09/22 05:58:22;;;;;;;4.45;3.28;;;;;;;;;;5070996;28;20017;-74
2022/09/22 06:00:48;;;;;;;7.53;3.10;;;;;;;;;;5069310;28;20012;-75
2022/09/22 06:03:14;;;;;;;4.63;3.50;;;;;;;;;;5064997;28;20062;-74
2022/09/22 06:05:40;;;;;;;5.70;3.00;;;;;;;;;;5067857;28;20021;-73
2022/09/22 06:08:07;;;;;;;6.22;3.40;;;;;;;;;;5073899;28;20065;-74
2022/09/22 06:10:34;;;;;;;4.53;3.30;;;;;;;;;;5065269;28;20033;-74
2022/09/22 06:13:07;;;;;;;7.65;3.05;;;;;;;;;;5067178;28;20055;-74
2022/09/22 06:15:34;;;;;;;7.70;3.00;;;;;;;;;;5064245;28;20028;-75
2022/09/22 06:18:01;;;;;;;3.95;3.10;;;;;;;;;;5067348;28;20448;-74
2022/09/22 06:20:28;;;;;;;8.18;3.08;;;;;;;;;;5068341;28;20051;-74
2022/09/22 06:22:55;;;;;;;5.15;3.25;;;;;;;;;;5065126;28;20024;-73
2022/09/22 06:25:22;;;;;;;5.68;3.47;;;;;;;;;;5068574;28;20029;-74
2022/09/22 06:27:58;;;;;;;3.92;2.80;;;;;;;;;;5065578;28;20619;-73
2022/09/22 06:30:25;;;;;;;6.03;3.17;;;;;;;;;;5066740;28;20048;-74
2022/09/22 06:32:55;;;;;;;4.07;3.15;;;;;;;;;;5066118;28;20025;-78
2022/09/22 06:35:21;;;;;;;5.45;3.10;;;;;;;;;;5071853;28;21000;-74
2022/09/22 06:37:55;;;;;;;7.72;3.47;;;;;;;;;;5070602;28;20024;-74
2022/09/22 06:40:22;;;;;;;5.63;3.22;;;;;;;;;;5068244;28;20078;-73
2022/09/22 06:42:48;;;;;;;6.43;2.80;;;;;;;;;;5080913;28;20119;-74
2022/09/22 06:45:17;;;;;;;5.82;3.38;;;;;;;;;;5068134;28;20020;-73
2022/09/22 06:47:44;;;;;;;3.72;2.80;;;;;;;;;;5068512;28;20857;-72
2022/09/22 06:50:10;;;;;;;3.75;3.35;;;;;;;;;;5065713;28;20043;-74
2022/09/22 06:52:36;;;;;;;6.57;3.33;;;;;;;;;;5065472;28;20044;-73
2022/09/22 06:55:02;;;;;;;5.85;2.92;;;;;;;;;;5068401;28;20021;-74
2022/09/22 06:57:31;;;;;;;4.15;2.80;;;;;;;;;;5067933;28;20075;-74
2022/09/22 06:59:59;;;;;;;7.25;3.25;;;;;;;;;;5068500;28;20389;-74
2022/09/22 07:02:27;;;;;;;3.70;2.92;;;;;;;;;;5063529;28;20037;-75
2022/09/22 07:04:54;;;;;;;8.93;3.42;;;;;;;;;;5068961;28;20032;-75
2022/09/22 07:07:21;;;;;;;4.25;3.70;;;;;;;;;;5068659;28;20027;-74
2022/09/22 07:09:47;;;;;;;10.23;4.35;;;;;;;;;;5061010;28;20036;-75
2022/09/22 07:12:14;;;;;;;18.50;4.13;;;;;;;;;;5062299;28;20585;-74
2022/09/22 07:14:40;;;;;;;10.68;2.90;;;;;;;;;;5077838;28;20074;-74
2022/09/22 07:17:06;;;;;;;5.50;2.50;;;;;;;;;;5057487;28;20047;-74
2022/09/22 07:19:34;;;;;;;5.43;2.97;;;;;;;;;;5061087;28;20048;-74
2022/09/22 07:22:01;;;;;;;2.53;1.73;;;;;;;;;;5061661;28;20422;-73
2022/09/22 07:24:28;;;;;;;3.40;1.80;;;;;;;;;;5068519;28;20647;-73
2022/09/22 07:26:54;;;;;;;5.32;1.90;;;;;;;;;;5068137;28;20104;-73
2022/09/22 07:29:20;;;;;;;3.40;2.00;;;;;;;;;;5055155;28;20016;-74
2022/09/22 07:31:46;;;;;;;2.72;1.75;;;;;;;;;;5065350;28;20020;-74
2022/09/22 07:34:13;;;;;;;3.25;1.80;;;;;;;;;;5070599;28;20032;-73
2022/09/22 07:36:40;;;;;;;1.83;1.50;;;;;;;;;;5066087;28;20189;-74
2022/09/22 07:39:09;;;;;;;2.35;1.60;;;;;;;;;;5069980;28;20026;-74
2022/09/22 07:41:41;;;;;;;1.83;1.40;;;;;;;;;;5070330;28;20522;-74
2022/09/22 07:46:53;;;;;;;;;;;;;;;;;;5065243;28;20155;-73
2022/09/22 07:49:21;;;;;;;2.72;1.52;;;;;;;;;;5062023;28;20392;-73
2022/09/22 07:51:48;;;;;;;4.82;1.45;;;;;;;;;;5069540;28;20487;-73
2022/09/22 07:54:14;;;;;;;3.05;2.20;;;;;;;;;;5064036;28;20033;-74
2022/09/22 07:56:42;;;;;;;1.90;1.60;;;;;;;;;;5067542;28;20021;-73
2022/09/22 07:59:09;;;;;;;1.98;1.63;;;;;;;;;;5080313;28;20103;-74
2022/09/22 08:01:36;;;;;;;2.75;1.70;;;;;;;;;;5071086;28;20012;-74
2022/09/22 08:04:03;;;;;;;1.88;1.75;;;;;;;;;;5067928;28;20119;-74
2022/09/22 08:06:30;;;;;;;1.60;1.50;;;;;;;;;;5062000;28;20028;-74
2022/09/22 08:08:57;;;;;;;2.00;1.50;;;;;;;;;;5069061;28;20528;-74
2022/09/22 08:11:26;;;;;;;4.05;1.98;;;;;;;;;;5068458;28;20029;-73
2022/09/22 08:13:54;;;;;;;2.10;1.90;;;;;;;;;;5065539;28;20044;-74
2022/09/22 08:16:26;;;;;;;1.55;1.45;;;;;;;;;;5065297;28;20135;-74
2022/09/22 08:18:55;;;;;;;2.53;1.92;;;;;;;;;;5062372;28;20304;-74
2022/09/22 08:21:25;;;;;;;1.75;1.65;;;;;;;;;;5067244;28;20024;-74
2022/09/22 08:23:52;;;;;;;2.60;1.70;;;;;;;;;;5071268;28;20031;-74
2022/09/22 08:26:19;;;;;;;2.13;1.55;;;;;;;;;;5067688;28;20043;-74
2022/09/22 08:28:46;;;;;;;2.10;1.65;;;;;;;;;;5069148;28;20138;-74
2022/09/22 08:31:13;;;;;;;2.50;1.80;;;;;;;;;;5063100;28;20458;-75
2022/09/22 08:33:41;;;;;;;2.33;1.98;;;;;;;;;;5064659;28;20028;-74
2022/09/22 08:36:07;;;;;;;3.53;1.98;;;;;;;;;;5062666;28;20628;-74
2022/09/22 08:38:33;;;;;;;3.65;1.95;;;;;;;;;;5066001;28;20086;-74
2022/09/22 08:41:06;;;;;;;2.92;2.00;;;;;;;;;;5068748;28;20027;-74
2022/09/22 08:43:32;;;;;;;5.07;2.60;;;;;;;;;;5067037;28;20064;-74
2022/09/22 08:46:01;;;;;;;2.55;2.13;;;;;;;;;;5069883;28;20024;-75
2022/09/22 08:54:04;;;;;;;3.80;2.42;;;;;;;;;;5059845;28;20036;-73
2022/09/22 08:56:30;;;;;;;3.08;2.30;;;;;;;;;;5062069;28;20017;-74
2022/09/22 08:59:03;;;;;;;2.97;2.20;;;;;;;;;;5063961;28;20029;-75
2022/09/22 09:01:34;;;;;;;3.13;2.53;;;;;;;;;;5069648;28;20016;-75
2022/09/22 09:04:11;;;;;;;2.50;2.30;;;;;;;;;;5072295;28;20020;-75
2022/09/22 09:06:48;;;;;;;3.95;2.13;;;;;;;;;;5074047;28;20425;-74
2022/09/22 09:09:32;;;;;;;4.45;1.80;;;;;;;;;;5069862;28;20029;-74
2022/09/22 09:12:13;;;;;;;3.38;2.20;;;;;;;;;;5066166;28;20131;-74
2022/09/22 09:14:42;;;;;;;3.53;2.40;;;;;;;;;;5066548;28;20466;-75
2022/09/22 09:17:08;;;;;;;3.03;2.25;;;;;;;;;;5071886;28;20070;-74
2022/09/22 09:19:35;;;;;;;2.20;1.90;;;;;;;;;;5073739;28;20327;-74
2022/09/22 09:22:07;;;;;;;2.75;2.00;;;;;;;;;;5072749;28;20119;-75
2022/09/22 09:24:37;;;;;;;4.95;2.20;;;;;;;;;;5080659;28;20186;-74
2022/09/22 09:27:07;;;;;;;3.53;2.30;;;;;;;;;;5065723;28;20028;-74
2022/09/22 09:29:37;;;;;;;3.92;2.00;;;;;;;;;;5077631;28;20017;-74
2022/09/22 09:32:06;;;;;;;3.92;2.20;;;;;;;;;;5073832;28;20013;-75
2022/09/22 09:34:32;;;;;;;3.08;2.10;;;;;;;;;;5071142;28;20083;-75
2022/09/22 09:37:06;;;;;;;2.88;2.25;;;;;;;;;;5074763;28;20020;-74
2022/09/22 09:39:33;;;;;;;4.55;2.53;;;;;;;;;;5067161;28;20017;-74
2022/09/22 09:42:00;;;;;;;4.97;2.80;;;;;;;;;;5082943;28;20032;-74
2022/09/22 09:44:31;;;;;;;3.65;2.50;;;;;;;;;;5073228;28;20056;-75
2022/09/22 09:47:33;;;;;;;4.40;2.80;;;;;;;;;;5073590;28;20028;-74
2022/09/22 09:49:59;;;;;;;4.72;3.17;;;;;;;;;;5033088;28;20029;-74
2022/09/22 09:52:25;;;;;;;5.18;3.00;;;;;;;;;;5055318;28;20071;-74
2022/09/22 09:54:52;;;;;;;4.20;2.83;;;;;;;;;;5062773;28;20025;-74
2022/09/22 09:57:20;;;;;;;4.07;2.70;;;;;;;;;;5073522;28;20025;-74
2022/09/22 10:02:48;;;;;;;4.50;3.65;;;;;;;;;;5069961;28;20484;-75
2022/09/22 10:05:17;;;;;;;5.15;4.13;;;;;;;;;;5063522;28;20039;-75
2022/09/22 10:07:48;;;;;;;4.53;3.50;;;;;;;;;;5075656;28;20040;-75
2022/09/22 10:10:32;;;;;;;7.05;3.00;;;;;;;;;;5073477;28;20117;-74
2022/09/22 10:13:05;;;;;;;6.10;2.80;;;;;;;;;;5065914;28;20055;-74
2022/09/22 10:15:34;;;;;;;4.07;2.90;;;;;;;;;;5068989;28;20381;-74
2022/09/22 10:18:01;;;;;;;4.13;2.70;;;;;;;;;;5076429;28;20032;-75
2022/09/22 10:20:32;;;;;;;4.45;3.03;;;;;;;;;;5066596;28;20350;-74
2022/09/22 10:23:19;;;;;;;4.95;3.05;;;;;;;;;;5076484;28;20107;-75
2022/09/22 10:25:45;;;;;;;3.03;2.70;;;;;;;;;;5073915;28;20046;-74
2022/09/22 10:28:15;;;;;;;3.42;2.80;;;;;;;;;;5074136;28;20123;-75
2022/09/22 10:30:42;;;;;;;4.15;3.20;;;;;;;;;;5073516;28;20059;-75
2022/09/22 10:33:08;;;;;;;3.40;2.47;;;;;;;;;;5073814;28;20071;-75
2022/09/22 10:35:35;;;;;;;4.57;2.72;;;;;;;;;;5075146;28;20024;-74
2022/09/22 10:38:28;;;;;;;4.20;3.40;;;;;;;;;;5067264;28;20025;-75
2022/09/22 11:23:40;;;;;;;2.55;2.08;;;;;;;;;;5122635;27;20399;-74
2022/09/22 11:26:17;;;;;;;4.05;2.10;;;;;;;;;;5096028;28;20040;-75
2022/09/22 11:28:52;;;;;;;2.50;2.30;;;;;;;;;;5074175;28;20556;-74
2022/09/22 11:31:22;;;;;;;3.35;2.22;;;;;;;;;;5109305;28;20031;-74
2022/09/22 11:34:00;;;;;;;2.60;1.90;;;;;;;;;;5111293;28;20028;-74
2022/09/22 11:36:31;;;;;;;3.22;1.90;;;;;;;;;;5101403;28;20028;-73
2022/09/22 11:39:16;;;;;;;2.90;1.70;;;;;;;;;;5101199;28;20094;-73
2022/09/22 11:42:01;;;;;;;2.30;1.67;;;;;;;;;;5103250;28;20537;-74
2022/09/22 11:44:27;;;;;;;1.73;1.63;;;;;;;;;;5101163;28;20174;-74
2022/09/22 11:47:12;;;;;;;3.90;2.17;;;;;;;;;;5101682;28;20112;-74
2022/09/22 11:49:47;;;;;;;3.75;1.98;;;;;;;;;;5106751;28;20049;-74
2022/09/22 11:52:22;;;;;;;2.22;1.90;;;;;;;;;;5082444;28;20042;-73
2022/09/22 11:54:48;;;;;;;;;;;;;;;;;;5098610;28;20051;-75
2022/09/22 11:57:17;;;;;;;5.63;1.70;;;;;;;;;;5096220;28;19969;-74
2022/09/22 11:59:52;;;;;;;3.05;2.40;;;;;;;;;;5101305;28;20020;-74
2022/09/22 12:02:24;;;;;;;3.13;1.92;;;;;;;;;;5097757;28;20036;-76
2022/09/22 12:04:56;;;;;;;3.05;2.10;;;;;;;;;;5097091;28;20027;-74
2022/09/22 12:07:31;;;;;;;4.68;2.40;;;;;;;;;;5100551;28;20631;-75
2022/09/22 12:10:14;;;;;;;3.22;2.25;;;;;;;;;;5099219;28;20032;-72
2022/09/22 12:12:47;;;;;;;2.95;2.28;;;;;;;;;;5100635;28;20407;-73
2022/09/22 12:15:24;;;;;;;3.17;2.20;;;;;;;;;;5084226;28;20054;-74
2022/09/22 12:18:09;;;;;;;3.30;2.28;;;;;;;;;;5101914;28;20068;-74
2022/09/22 12:20:52;;;;;;;3.42;3.05;;;;;;;;;;5081648;28;20020;-74
2022/09/22 12:23:37;;;;;;;2.92;2.30;;;;;;;;;;5077896;28;20571;-74
2022/09/22 12:26:05;;;;;;;2.60;1.95;;;;;;;;;;5069221;28;20028;-74
2022/09/22 12:28:32;;;;;;;3.63;2.78;;;;;;;;;;5068523;28;20040;-75
2022/09/22 12:31:04;;;;;;;2.75;2.20;;;;;;;;;;5088466;28;20026;-74
2022/09/22 12:33:32;;;;;;;2.88;2.15;;;;;;;;;;5085250;28;20028;-74
2022/09/22 12:35:59;;;;;;;2.65;2.30;;;;;;;;;;5085587;28;20027;-74
2022/09/22 12:38:25;;;;;;;3.28;2.33;;;;;;;;;;5083347;28;20483;-74
2022/09/22 12:40:53;;;;;;;6.75;2.50;;;;;;;;;;5068364;28;20035;-74
2022/09/22 12:43:23;;;;;;;4.32;2.40;;;;;;;;;;5067166;28;20020;-75
2022/09/22 12:45:50;;;;;;;4.32;2.00;;;;;;;;;;5089118;28;20024;-74
2022/09/22 12:48:18;;;;;;;2.80;2.50;;;;;;;;;;5067511;28;20020;-73
2022/09/22 12:50:45;;;;;;;3.00;2.10;;;;;;;;;;5085051;28;20032;-74
2022/09/22 12:53:23;;;;;;;2.97;2.30;;;;;;;;;;5087107;28;20499;-74
2022/09/22 12:55:50;;;;;;;2.72;2.20;;;;;;;;;;5084391;28;20024;-74
2022/09/22 12:58:22;;;;;;;2.65;2.30;;;;;;;;;;5086806;28;20031;-74
2022/09/22 13:00:55;;;;;;;2.05;1.85;;;;;;;;;;5066180;28;20033;-75
2022/09/22 13:03:24;;;;;;;2.70;2.22;;;;;;;;;;5085187;28;20025;-74
2022/09/22 13:05:55;;;;;;;4.65;2.58;;;;;;;;;;5081299;28;20021;-75
2022/09/22 13:08:30;;;;;;;4.03;1.90;;;;;;;;;;5064905;28;20028;-75
2022/09/22 13:10:56;;;;;;;3.20;1.92;;;;;;;;;;5077778;28;20040;-75
2022/09/22 13:13:43;;;;;;;2.33;1.80;;;;;;;;;;5084074;28;20563;-75
2022/09/22 13:16:15;;;;;;;1.70;1.60;;;;;;;;;;5066293;28;20138;-75
2022/09/22 13:18:45;;;;;;;2.05;1.40;;;;;;;;;;5066635;28;20030;-75
2022/09/22 13:21:11;;;;;;;1.60;1.50;;;;;;;;;;5064445;28;20036;-75
2022/09/22 13:24:01;;;;;;;1.65;1.55;;;;;;;;;;5065891;28;20500;-75
2022/09/22 13:26:29;;;;;;;3.25;1.50;;;;;;;;;;5070610;28;20028;-73
2022/09/22 13:29:02;;;;;;;2.15;1.80;;;;;;;;;;5086268;28;20024;-74
2022/09/22 13:31:34;;;;;;;2.55;1.70;;;;;;;;;;5083682;28;20028;-75
2022/09/22 13:34:17;;;;;;;2.28;2.08;;;;;;;;;;5082272;28;20036;-75
2022/09/22 13:36:44;;;;;;;2.80;1.80;;;;;;;;;;5085621;28;20028;-75
2022/09/22 13:39:13;;;;;;;2.95;2.15;;;;;;;;;;5080774;28;20111;-75
2022/09/22 13:41:43;;;;;;;3.90;2.25;;;;;;;;;;5086386;28;20027;-75
2022/09/22 13:44:11;;;;;;;3.05;2.40;;;;;;;;;;5065879;28;20024;-75
2022/09/22 13:46:38;;;;;;;3.08;2.40;;;;;;;;;;5086544;28;20020;-74
2022/09/22 13:49:05;;;;;;;3.20;2.47;;;;;;;;;;5069796;28;20017;-74
2022/09/22 13:51:31;;;;;;;3.20;2.35;;;;;;;;;;5087069;28;20132;-75
2022/09/22 13:53:58;;;;;;;3.30;2.63;;;;;;;;;;5062496;28;20020;-75
2022/09/22 13:56:25;;;;;;;4.35;2.10;;;;;;;;;;5082533;28;20052;-75
2022/09/22 13:58:54;;;;;;;6.10;2.67;;;;;;;;;;5081494;28;20028;-74
2022/09/22 14:01:21;;;;;;;7.03;2.15;;;;;;;;;;5065181;28;20034;-75
2022/09/22 14:03:48;;;;;;;5.93;2.20;;;;;;;;;;5084063;28;20106;-74
2022/09/22 14:06:16;;;;;;;7.45;2.20;;;;;;;;;;5086577;28;20622;-74
2022/09/22 14:08:44;;;;;;;4.22;2.00;;;;;;;;;;5081593;28;20031;-75
2022/09/22 14:11:36;;;;;;;5.32;2.13;;;;;;;;;;5083428;28;20111;-75
2022/09/22 14:14:05;;;;;;;2.83;2.10;;;;;;;;;;5079300;28;20054;-75
2022/09/22 14:16:35;;;;;;;2.80;2.03;;;;;;;;;;5087312;28;20023;-75
2022/09/22 14:19:08;;;;;;;5.25;2.30;;;;;;;;;;5067578;28;20023;-75
2022/09/22 14:21:44;;;;;;;4.53;2.03;;;;;;;;;;5062805;28;20057;-74
2022/09/22 14:24:12;;;;;;;2.70;2.50;;;;;;;;;;5084060;28;20027;-74
2022/09/22 14:26:39;;;;;;;5.35;2.22;;;;;;;;;;5082123;28;20553;-75
2022/09/22 14:29:16;;;;;;;6.60;2.30;;;;;;;;;;5067100;28;20024;-74
2022/09/22 14:31:44;;;;;;;3.63;2.03;;;;;;;;;;5062384;28;20047;-75
2022/09/22 14:34:17;;;;;;;3.38;2.00;;;;;;;;;;5086844;28;20054;-74
2022/09/22 14:36:44;;;;;;;4.47;2.03;;;;;;;;;;5066646;28;20024;-75
2022/09/22 14:39:15;;;;;;;4.28;1.95;;;;;;;;;;5066024;28;20016;-75
2022/09/22 14:41:49;;;;;;;6.05;1.85;;;;;;;;;;5084511;28;20048;-75
2022/09/22 14:44:48;;;;;;;3.70;2.10;;;;;;;;;;5083620;28;20012;-75
2022/09/22 14:47:20;;;;;;;3.90;1.90;;;;;;;;;;5039939;28;20032;-75
2022/09/22 14:49:47;;;;;;;6.10;3.08;;;;;;;;;;5081217;28;20411;-75
2022/09/22 14:52:21;;;;;;;3.20;1.95;;;;;;;;;;5062445;28;20035;-75
2022/09/22 14:54:47;;;;;;;2.85;2.03;;;;;;;;;;5064303;28;20560;-75
2022/09/22 14:57:16;;;;;;;3.20;2.17;;;;;;;;;;5066358;28;20024;-75
2022/09/22 15:02:32;;;;;;;5.28;2.17;;;;;;;;;;5084710;28;20482;-75
2022/09/22 15:05:02;;;;;;;4.93;2.45;;;;;;;;;;5084009;28;20039;-75
2022/09/22 15:07:39;;;;;;;5.28;3.08;;;;;;;;;;5078848;28;20139;-74
2022/09/22 15:10:07;;;;;;;3.15;2.15;;;;;;;;;;5066010;28;20085;-75
2022/09/22 15:12:44;;;;;;;7.97;2.30;;;;;;;;;;5063277;28;20020;-75
2022/09/22 15:15:25;;;;;;;2.80;2.05;;;;;;;;;;5084389;28;20078;-75
2022/09/22 15:20:40;;;;;;;5.85;1.90;;;;;;;;;;5084748;28;20144;-75
2022/09/22 15:23:12;;;;;;;4.85;1.90;;;;;;;;;;5082465;28;20048;-75
2022/09/22 15:25:38;;;;;;;4.90;1.90;;;;;;;;;;5084303;28;20032;-74
2022/09/22 15:28:10;;;;;;;3.33;1.73;;;;;;;;;;5085127;28;20057;-75
2022/09/22 15:30:36;;;;;;;3.05;1.77;;;;;;;;;;5085000;28;20024;-75
2022/09/22 15:33:02;;;;;;;4.60;1.88;;;;;;;;;;5083749;28;20024;-74
2022/09/22 15:35:31;;;;;;;5.78;2.00;;;;;;;;;;5064116;28;20071;-74
2022/09/22 15:37:57;;;;;;;3.00;2.67;;;;;;;;;;5062090;28;20028;-75
2022/09/22 15:40:23;;;;;;;5.40;2.28;;;;;;;;;;5081429;28;20392;-75
2022/09/22 15:42:50;;;;;;;3.35;1.80;;;;;;;;;;5078876;28;20028;-74
2022/09/22 15:45:20;;;;;;;6.20;2.10;;;;;;;;;;5065364;28;20043;-75
2022/09/22 15:47:48;;;;;;;3.65;2.67;;;;;;;;;;5081029;28;20036;-75
2022/09/22 15:50:18;;;;;;;4.90;4.50;;;;;;;;;;5082286;28;20468;-75
2022/09/22 15:52:45;;;;;;;4.07;2.60;;;;;;;;;;5067408;28;20040;-75
2022/09/22 15:55:15;;;;;;;3.80;2.20;;;;;;;;;;5064395;28;20031;-75
2022/09/22 15:57:42;;;;;;;5.85;2.30;;;;;;;;;;5064122;28;20643;-77
2022/09/22 16:00:13;;;;;;;6.25;2.20;;;;;;;;;;5083753;28;20024;-77